Terminal Aerodrome Forecast
Issued by NWS

Home | Current Version | Previous Version | Text Only | Print | Product List | Glossary On
Versions: 1 2 3 4 5 6 7 8 9 10 11 12 13 14 15 16 17 18 19 20 21 22 23 24 25 26 27 28 29
000
FTUS41 KOKX 211502 AAB
TAFGON
TAF AMD
KGON 211502Z 2115/2212 19003KT 1/4SM FG VV002
     FM211700 23008KT 1SM BR SCT007 BKN015
     FM211900 22010KT 6SM BR SCT015 SCT035
     FM212100 22007KT P6SM SCT035 BKN250
     FM220400 34010G16KT P6SM VCSH BKN035
     FM220700 02005KT P6SM BKN040=

USA.gov is the U.S. government's official web portal to all federal, state and local government web resources and services.